Current Weather

Porter County Rgnl

Valparaiso, Indiana (KVPZ)

Report from: Monday, June 17, 2024 3:56 AM CDT
Current time: Monday, June 17, 2024 4:53 AM CDT

Nearby weather – Weather history – Daily summaries
Weather forecast

Temperature24.4°C (75.9°F)
Dew point20.0°C (68.0°F)
Winds 6 kts (3.1 m/s, 6.9 mph) South (190°)
Visibility10 mi. (16.1 km)
Clouds Sky clear
Altimeter29.94 in.Hg (1014 mB)
Relative humidity77 %
Density altitude1,415 ft. (431 m)
Sea-level pressure101.3 kPa (1013 mB, 29.91 in.Hg)
Remarks Fully automated report
Automated weather observing station with precipitation discriminator
Pressure falling more slowly
Flight conditions Visual Meteorological Conditions
Raw dataKVPZ 170856Z AUTO 19006KT 10SM CLR 24/20 A2994 RMK AO2 SLP130 T02440200 56001
An error has occurred. This application may no longer respond until reloaded. Reload 🗙